Tiempo atmosférico en la estación meteorológica de Barbadillo, Salamanca (817 m.)



Fecha
DESCASC
Temp. máxima en grados centígrados (hora)
DESCASC
Temp. mínima en grados centígrados (hora)
DESCASC
Temp. media en grados centígrados
DESCASC
Racha de viento máxima en m/sg (hora)
DESCASC
Velocidad máxima media en intervalos de 10 minutos(hora)
DESCASC
Precipitaciones diarias en mm
DESCASC
Precipitaciones de 00:00 a 06:00 en mm
DESCASC
Precipitaciones de 06:00 a 12:00 en mm
DESCASC
Precipitaciones de 12:00 a 18:00 en mm
DESCASC
Precipitaciones de 18:00 a 24:00 en mm
DESCASC
03-12-2020 10.2 (13:50) -5.7 (08:30) 2.3 15 (22:50) 8.61 (22:20) 0.4 0 0 0 0.4
02-12-2020 8 (13:00) -2.5 (23:59) 2.8 12.5 (12:50) 7.78 (12:30) 0 0 0 0 0
01-12-2020 11.5 (15:20) -1.7 (08:20) 4.9 7.5 (13:50) 4.17 (13:50) 0 0 0 0 0
30-11-2020 14.3 (15:20) 1.8 (00:00) 8.1 6.94 (15:10) 5.28 (15:10) 0 0 0 0 0
29-11-2020 12.5 (15:30) 5.3 (00:00) 8.9 7.5 (22:50) 4.72 (22:50) 0.4 0 0.4 0 0
28-11-2020 11 (13:00) 2.4 (00:00) 6.7 5.83 (14:40) 3.89 (17:20) 0 0 0 0 0
27-11-2020 12.7 (14:10) 4.6 (00:00) 8.6 12.22 (15:50) 6.67 (15:40) 0 0 0 0 0
26-11-2020 10.9 (11:50) 6.6 (00:00) 8.7 9.72 (19:10) 6.94 (15:50) 2 0 0 0 2
25-11-2020 9.6 (14:20) 2 (00:00) 5.8 6.94 (04:50) 4.44 (05:10) 1.2 0 1 0 0.2
24-11-2020 13 (16:40) -1.2 (-00:0) 5.9 6.39 (13:30) 3.61 (13:40) 0 0 0 0 0
23-11-2020 15.3 (15:10) -2.2 (-00:0) 6.6 5 (12:00) 3.61 (12:00) 0 0 0 0 0
22-11-2020 16.6 (16:20) -0.5 (-00:0) 8.1 3.89 (14:30) 1.67 (15:00) 0 0 0 0 0
21-11-2020 15.2 (16:50) 0 (00:00) 7.6 5.28 (00:50) 3.06 (00:10) 0 0 0 0 0
20-11-2020 12.6 (15:00) 4 (00:00) 8.3 11.11 (14:50) 6.39 (15:40) 0 0 0 0 0
19-11-2020 18.5 (15:30) 3.4 (00:00) 11 6.11 (12:30) 4.17 (12:20) 0 0 0 0 0
18-11-2020 21.5 (15:50) 2.7 (00:00) 12.1 3.89 (16:40) 2.22 (16:40) 0 0 0 0 0
17-11-2020 20.9 (15:30) 0.7 (00:00) 10.8 3.06 (13:30) 2.22 (19:40) 0 0 0 0 0
16-11-2020 15.9 (14:50) 4.3 (00:00) 10.1 6.67 (00:20) 3.61 (00:40) 0 0 0 0 0
15-11-2020 17.6 (14:50) 11.8 (00:00) 14.7 13.89 (14:10) 8.61 (15:40) 0 0 0 0 0
14-11-2020 16.5 (14:10) 7.1 (00:00) 11.8 8.33 (16:30) 5.56 (14:30) 0 0 0 0 0
13-11-2020 14.6 (14:50) 4.1 (00:00) 9.4 5.28 (13:20) 4.17 (13:20) 0 0 0 0 0
12-11-2020 15.3 (15:50) 4.6 (00:00) 10 5 (12:00) 3.89 (12:00) 0 0 0 0 0
11-11-2020 13.9 (15:40) 4.9 (00:00) 9.4 5.83 (02:50) 3.61 (02:50) 0.2 0 0.2 0 0
10-11-2020 13.2 (16:20) 3.8 (00:00) 8.5 4.72 (17:40) 3.33 (21:40) 0 0 0 0 0
09-11-2020 14.1 (14:30) 5.9 (00:00) 10 6.39 (11:50) 3.89 (14:00) 1.2 1.2 0 0 0
08-11-2020 13.7 (15:50) 9.7 (00:00) 11.7 14.17 (11:10) 9.17 (11:10) 2.8 0 0 0.6 2.2
07-11-2020 13.7 (15:50) 8.3 (00:00) 11 9.44 (20:50) 6.11 (17:10) 5.4 3.2 0.8 1.4 0
06-11-2020 19.3 (14:30) 8.1 (00:00) 13.7 16.39 (18:20) 9.44 (11:20) 2.2 1 0.2 0 1
05-11-2020 13.6 (14:20) 6.8 (00:00) 10.2 14.17 (11:00) 10 (11:00) 1.4 0.2 0.2 0 1

Gráficas

Temp. máximas Temp. mínimas Temp. medias Precipitaciones Rachas de viento máximas Velocidades máximas media en intervalos de 10 minutos

Datos horarios

Fecha y hora oficial Temperatura (ºC) Velocidad del viento (km/h) Dirección del viento Racha (km/h) Dirección de racha Precipitación (mm) Presión (hPa) Tendencia (hPa) Humedad (%)
2020-12-04 23:00:00 0.4 12 Oeste 26 Oeste 0 -- -- 90
2020-12-04 22:00:00 0.8 15 Oeste 22 Oeste 0 -- -- 89
2020-12-04 21:00:00 1 13 Oeste 26 Oeste 0 -- -- 90
2020-12-04 20:00:00 0.9 13 Oeste 26 Oeste 0 -- -- 90
2020-12-04 19:00:00 0.9 12 Sudoeste 37 Oeste 0 -- -- 88
2020-12-04 18:00:00 2.4 18 Oeste 30 Sudoeste 0 -- -- 83
2020-12-04 17:00:00 2.7 21 Oeste 36 Oeste 0 -- -- 81
2020-12-04 16:00:00 3.3 15 Oeste 37 Oeste 0 -- -- 78
2020-12-04 15:00:00 3.3 23 Oeste 44 Oeste 0 -- -- 78
2020-12-04 14:00:00 3.1 25 Oeste 42 Oeste 0 -- -- 81
2020-12-04 13:00:00 3.1 24 Oeste 39 Sudoeste 0 -- -- 91
2020-12-04 12:00:00 3.3 25 Oeste 48 Sudoeste 0 -- -- 85
2020-12-04 11:00:00 2.7 24 Oeste 37 Oeste 0 -- -- 91
2020-12-04 10:00:00 2 19 Oeste 34 Sudoeste 0 -- -- 93
2020-12-04 09:00:00 1.6 12 Oeste 30 Oeste 0.4 -- -- 94
2020-12-04 08:00:00 2.1 15 Oeste 30 Oeste 0.2 -- -- 91
2020-12-04 07:00:00 2.7 21 Oeste 43 Oeste 0 -- -- 89
2020-12-04 06:00:00 3.1 19 Oeste 43 Oeste 0.2 -- -- 90
2020-12-04 05:00:00 3.9 24 Oeste 46 Oeste 0 -- -- 90
2020-12-04 04:00:00 4.4 23 Oeste 58 Oeste 0 -- -- 90
2020-12-04 03:00:00 5.1 24 Oeste 57 Oeste 2.4 -- -- 91
2020-12-04 02:00:00 6.1 25 Sudoeste 62 Sudoeste 0.2 -- -- 93
2020-12-04 01:00:00 6.2 30 Sudoeste 51 Sudoeste 0.2 -- -- 92
2020-12-04 00:00:00 6.3 31 Sudoeste 49 Sudoeste 0.4 -- -- 91
2020-12-03 23:00:00 6.7 25 Sudoeste 54 Sudoeste 0 -- -- 88
2020-12-03 22:00:00 6.7 29 Sudoeste 51 Sudoeste 0 -- -- 85
2020-12-03 21:00:00 6.7 26 Sudoeste 48 Sudoeste 0 -- -- 79
2020-12-03 20:00:00 6.5 21 Sudoeste 33 Sudoeste 0 -- -- 74
2020-12-03 19:00:00 6.1 18 Sudoeste 35 Sudoeste 0 -- -- 70
2020-12-03 18:00:00 6.5 16 Sudoeste 39 Oeste 0 -- -- 67
2020-12-03 17:00:00 8 24 Oeste 41 Sudoeste 0 -- -- 56
2020-12-03 16:00:00 8.4 23 Oeste 36 Sudoeste 0 -- -- 55
2020-12-03 15:00:00 9.5 21 Oeste 36 Oeste 0 -- -- 47
2020-12-03 14:00:00 10.1 24 Oeste 37 Oeste 0 -- -- 39
2020-12-03 13:00:00 9.9 22 Oeste 32 Oeste 0 -- -- 44
2020-12-03 12:00:00 8.8 10 Oeste 16 Oeste 0 -- -- 55
2020-12-03 11:00:00 5.8 4 Sur 12 Sudeste 0 -- -- 73
2020-12-03 10:00:00 -1.4 2 Sur 5 Sudoeste 0 -- -- 95
2020-12-03 09:00:00 -5.6 3 Sur 4 Sur 0 -- -- 92
2020-12-03 08:00:00 -5.2 4 Sudoeste 9 Sur 0 -- -- 92
2020-12-03 07:00:00 -5.5 7 Sur 10 Sur 0 -- -- 92
2020-12-03 06:00:00 -5.1 0 Calma 7 Sur 0 -- -- 92
2020-12-03 05:00:00 -4.6 0 Calma 6 Sur 0 -- -- 93
2020-12-03 04:00:00 -4.7 3 Sudoeste 8 Sur 0 -- -- 92
2020-12-03 03:00:00 -4.8 0 Calma 6 Oeste 0 -- -- 90
2020-12-03 02:00:00 -3.9 2 Sur 9 Sudoeste 0 -- -- 91
2020-12-03 01:00:00 -3.4 3 Sudoeste 8 Sur 0 -- -- 90
2020-12-03 00:00:00 -2.5 2 Sur 8 Sudoeste 0 -- -- 89
2020-12-02 23:00:00 -1.5 5 Sur 10 Nordeste 0 -- -- 87
2020-12-02 22:00:00 0.9 8 Este 17 Este 0 -- -- 82
2020-12-02 21:00:00 0.6 12 Este 16 Este 0 -- -- 85
2020-12-02 20:00:00 1.1 9 Este 13 Este 0 -- -- 82
2020-12-02 19:00:00 3.3 5 Este 17 Nordeste 0 -- -- 73
2020-12-02 18:00:00 4.8 8 Nordeste 20 Nordeste 0 -- -- 67
2020-12-02 17:00:00 6.2 15 Nordeste 26 Nordeste 0 -- -- 63
2020-12-02 16:00:00 6.7 19 Nordeste 29 Este 0 -- -- 60
2020-12-02 15:00:00 6.7 19 Este 31 Nordeste 0 -- -- 64
2020-12-02 14:00:00 7.1 23 Este 36 Este 0 -- -- 65
2020-12-02 13:00:00 8 27 Este 45 Este 0 -- -- 63
2020-12-02 12:00:00 6.5 22 Este 38 Este 0 -- -- 80
2020-12-02 11:00:00 3.8 8 Este 16 Este 0 -- -- 92
2020-12-02 10:00:00 0.4 2 Sur 4 Sur 0 -- -- 96
2020-12-02 09:00:00 -1.6 0 Calma 5 Sur 0 -- -- 94
2020-12-02 08:00:00 -1.9 2 Sur 7 Sur 0 -- -- 93
2020-12-02 07:00:00 -1.7 5 Sur 7 Sur 0 -- -- 93
2020-12-02 06:00:00 -1.5 5 Sur 7 Sur 0 -- -- 93
2020-12-02 05:00:00 -1.3 3 Sur 5 Sur 0 -- -- 93
2020-12-02 04:00:00 -1.4 3 Sur 6 Sur 0 -- -- 93
2020-12-02 03:00:00 -1.3 4 Sur 5 Sur 0 -- -- 91
2020-12-02 02:00:00 -0.8 4 Sur 6 Sur 0 -- -- 92
2020-12-02 01:00:00 -0.7 3 Sur 5 Sur 0 -- -- 90
2020-12-02 00:00:00 -0.2 2 Sudoeste 6 Sur 0 -- -- 89
2020-12-01 23:00:00 0.2 3 Sur 8 Sur 0 -- -- 89
2020-12-01 22:00:00 0.7 3 Sur 9 Sur 0 -- -- 85
2020-12-01 21:00:00 1.5 6 Sur 8 Sur 0 -- -- 84
2020-12-01 20:00:00 3.5 3 Sur 6 Sur 0 -- -- 74
2020-12-01 19:00:00 6.5 2 Sur 5 Este 0 -- -- 67
2020-12-01 18:00:00 9.5 6 Nordeste 19 Nordeste 0 -- -- 55
2020-12-01 17:00:00 11 14 Nordeste 19 Nordeste 0 -- -- 47
2020-12-01 16:00:00 11.4 11 Nordeste 21 Nordeste 0 -- -- 45
2020-12-01 15:00:00 11.2 11 Nordeste 23 Nordeste 0 -- -- 45
2020-12-01 14:00:00 10.5 12 Nordeste 27 Nordeste 0 -- -- 46
2020-12-01 13:00:00 9.7 11 Nordeste 22 Nordeste 0 -- -- 50
2020-12-01 12:00:00 8.3 10 Este 16 Este 0 -- -- 70
2020-12-01 11:00:00 5.9 8 Este 10 Este 0 -- -- 92
2020-12-01 10:00:00 1.5 0 Calma 5 Sudeste 0 -- -- 99
2020-12-01 09:00:00 -1.7 0 Calma 5 Sur 0 -- -- 95
2020-12-01 08:00:00 -1.5 4 Sur 6 Sur 0 -- -- 95
2020-12-01 07:00:00 -1.3 0 Calma 5 Sur 0 -- -- 95
2020-12-01 06:00:00 -1 6 Sur 7 Sur 0 -- -- 95
2020-12-01 05:00:00 -0.6 3 Sudeste 9 Sur 0 -- -- 95
2020-12-01 04:00:00 -0.3 7 Sur 9 Sur 0 -- -- 95
2020-12-01 03:00:00 0.1 4 Sur 6 Sur 0 -- -- 94
2020-12-01 02:00:00 0.7 0 Calma 8 Sur 0 -- -- 95
2020-12-01 01:00:00 1.2 2 Sur 8 Nordeste 0 -- -- 94
2020-12-01 00:00:00 1.8 0 Calma 6 Oeste 0 -- -- 92
2020-11-30 23:00:00 2.1 2 Nordeste 6 Nordeste 0 -- -- 92
2020-11-30 22:00:00 3 0 Calma 5 Sur 0 -- -- 90
2020-11-30 21:00:00 4.1 3 Sur 6 Sudeste 0 -- -- 88
2020-11-30 20:00:00 6.1 5 Este 9 Este 0 -- -- 86
2020-11-30 19:00:00 8.4 3 Este 9 Nordeste 0 -- -- 79
2020-11-30 18:00:00 10.7 6 Nordeste 19 Este 0 -- -- 73
2020-11-30 17:00:00 12.3 13 Nordeste 20 Nordeste 0 -- -- 67
2020-11-30 16:00:00 12.8 12 Nordeste 25 Nordeste 0 -- -- 67
2020-11-30 15:00:00 14 17 Este 24 Nordeste 0 -- -- 62
2020-11-30 14:00:00 12.9 14 Nordeste 22 Este 0 -- -- 67
2020-11-30 13:00:00 10.2 11 Este 21 Nordeste 0 -- -- 80
2020-11-30 12:00:00 8.7 8 Este 19 Nordeste 0 -- -- 87
2020-11-30 11:00:00 6.9 5 Nordeste 16 Este 0 -- -- 89
2020-11-30 10:00:00 6.9 6 Este 13 Este 0 -- -- 91
2020-11-30 09:00:00 4.1 4 Nordeste 9 Este 0 -- -- 95
2020-11-30 08:00:00 4.2 0 Calma 6 Sur 0 -- -- 94
2020-11-30 07:00:00 5.1 0 Calma 4 Sur 0 -- -- 94
2020-11-30 06:00:00 6 2 Sudoeste 6 Sur 0 -- -- 92
2020-11-30 05:00:00 7.2 0 Calma 7 Norte 0 -- -- 91
2020-11-30 04:00:00 7.8 5 Sudoeste 9 Noroeste 0 -- -- 93
2020-11-30 03:00:00 7.9 4 Oeste 8 Noroeste 0 -- -- 91
2020-11-30 02:00:00 8.3 4 Sudoeste 6 Sudoeste 0 -- -- 90
2020-11-30 01:00:00 9 3 Oeste 17 Oeste 0 -- -- 87
2020-11-30 00:00:00 9.5 9 Oeste 18 Sudeste 0 -- -- 79
2020-11-29 23:00:00 9.7 12 Este 27 Este 0 -- -- 78
2020-11-29 22:00:00 8.7 13 Este 24 Nordeste 0 -- -- 85
2020-11-29 21:00:00 9.1 9 Nordeste 15 Nordeste 0 -- -- 87
2020-11-29 20:00:00 9.4 4 Norte 10 Norte 0 -- -- 87
2020-11-29 19:00:00 10.2 4 Norte 21 Nordeste 0 -- -- 84
2020-11-29 18:00:00 10.8 10 Nordeste 18 Nordeste 0 -- -- 80
2020-11-29 17:00:00 11.6 12 Nordeste 20 Nordeste 0 -- -- 75
2020-11-29 16:00:00 12.3 6 Nordeste 12 Nordeste 0 -- -- 73
2020-11-29 15:00:00 12.2 8 Nordeste 11 Nordeste 0 -- -- 70
2020-11-29 14:00:00 12.2 0 Calma 12 Este 0 -- -- 68
2020-11-29 13:00:00 11.6 8 Este 13 Nordeste 0 -- -- 74
2020-11-29 12:00:00 11.1 5 Este 11 Este 0 -- -- 80
2020-11-29 11:00:00 9.2 3 Nordeste 7 Norte 0 -- -- 89
2020-11-29 10:00:00 7 0 Calma 7 Este 0 -- -- 94
2020-11-29 09:00:00 6.2 5 Oeste 9 Oeste 0.2 -- -- 95
2020-11-29 08:00:00 6.2 4 Norte 8 Oeste 0.2 -- -- 93
2020-11-29 07:00:00 6.2 0 Calma 6 Sudoeste 0 -- -- 90
2020-11-29 06:00:00 6.1 3 Sur 10 Sur 0 -- -- 90
2020-11-29 05:00:00 6.1 4 Sur 12 Este 0 -- -- 90
2020-11-29 04:00:00 5.7 6 Este 11 Este 0 -- -- 93
2020-11-29 03:00:00 5.5 2 Norte 8 Este 0 -- -- 92
2020-11-29 02:00:00 6.3 3 Nordeste 7 Nordeste 0 -- -- 91
2020-11-29 01:00:00 6.5 2 Este 9 Nordeste 0 -- -- 92
2020-11-29 00:00:00 5.9 2 Sudeste 5 Sudeste 0 -- -- 93
2020-11-28 23:00:00 5.5 0 Calma 8 Este 0 -- -- 92
2020-11-28 22:00:00 6.2 3 Sudoeste 14 Este 0 -- -- 89
2020-11-28 21:00:00 7.3 0 Calma 8 Sur 0 -- -- 87
2020-11-28 20:00:00 8.3 3 Este 15 Sur 0 -- -- 83
2020-11-28 19:00:00 8.8 5 Sudoeste 12 Sudeste 0 -- -- 81
2020-11-28 18:00:00 9.4 4 Sudoeste 20 Sur 0 -- -- 78
2020-11-28 17:00:00 10.2 13 Sur 19 Sur 0 -- -- 74
2020-11-28 16:00:00 10.5 0 Calma 15 Oeste 0 -- -- 73
2020-11-28 15:00:00 11 6 Oeste 21 Oeste 0 -- -- 74
2020-11-28 14:00:00 9.2 4 Norte 15 Noroeste 0 -- -- 89
2020-11-28 13:00:00 11 6 Norte 12 Norte 0 -- -- 81
2020-11-28 12:00:00 8 5 Nordeste 9 Nordeste 0 -- -- 96
2020-11-28 11:00:00 5.2 2 Norte 6 Norte 0 -- -- 98
2020-11-28 10:00:00 4 3 Sur 7 Sudoeste 0 -- -- 98
2020-11-28 09:00:00 3 3 Sudeste 6 Oeste 0 -- -- 97
2020-11-28 08:00:00 2.7 0 Calma 5 Sudoeste 0 -- -- 94
2020-11-28 07:00:00 4.3 2 Sur 5 Sudoeste 0 -- -- 94
2020-11-28 06:00:00 5.2 3 Oeste 6 Nordeste 0 -- -- 95
2020-11-28 05:00:00 5.2 0 Calma 5 Sur 0 -- -- 95
2020-11-28 04:00:00 5.1 0 Calma 4 Noroeste 0 -- -- 95
2020-11-28 03:00:00 5.2 0 Calma 6 Sudeste 0 -- -- 94
2020-11-28 02:00:00 5.6 0 Calma 6 Sur 0 -- -- 94
2020-11-28 01:00:00 5.2 0 Calma 5 Sur 0 -- -- 94
2020-11-28 00:00:00 5 4 Sudoeste 6 Sudoeste 0 -- -- 91
2020-11-27 23:00:00 6.3 2 Norte 4 Sudoeste 0 -- -- 88
2020-11-27 22:00:00 7.7 4 Este 10 Este 0 -- -- 86
2020-11-27 21:00:00 8.2 6 Este 12 Este 0 -- -- 85
2020-11-27 20:00:00 8.4 9 Este 13 Este 0 -- -- 82
2020-11-27 19:00:00 8.6 6 Este 20 Este 0 -- -- 83
2020-11-27 18:00:00 9.5 13 Este 18 Este 0 -- -- 79
2020-11-27 17:00:00 10.5 15 Nordeste 29 Nordeste 0 -- -- 75
2020-11-27 16:00:00 11.3 19 Este 44 Este 0 -- -- 70
2020-11-27 15:00:00 12.1 23 Nordeste 32 Nordeste 0 -- -- 72
2020-11-27 14:00:00 12.4 19 Este 31 Este 0 -- -- 72
2020-11-27 13:00:00 10.8 15 Nordeste 23 Este 0 -- -- 82
2020-11-27 12:00:00 9.6 15 Nordeste 24 Nordeste 0 -- -- 87
2020-11-27 11:00:00 7 4 Norte 9 Norte 0 -- -- 96
2020-11-27 10:00:00 5.1 0 Calma 9 Oeste 0 -- -- 96
2020-11-27 09:00:00 4.6 6 Oeste 14 Este 0 -- -- 93
2020-11-27 08:00:00 5.5 6 Este 19 Nordeste 0 -- -- 92
2020-11-27 07:00:00 6.9 12 Este 23 Este 0 -- -- 92
2020-11-27 06:00:00 6.9 10 Nordeste 20 Este 0 -- -- 95
2020-11-27 05:00:00 6.9 14 Este 22 Este 0 -- -- 94
2020-11-27 04:00:00 6.8 14 Este 22 Este 0 -- -- 96
2020-11-27 03:00:00 5.9 6 Este 11 Este 0 -- -- 96
2020-11-27 02:00:00 5.4 3 Sudoeste 6 Sur 0 -- -- 96
2020-11-27 01:00:00 5.3 3 Este 8 Nordeste 0 -- -- 95
2020-11-27 00:00:00 6.6 2 Sur 5 Sudeste 0 -- -- 93
2020-11-26 23:00:00 7.5 2 Sudeste 20 Este 0 -- -- 93
2020-11-26 22:00:00 7.9 13 Este 23 Este 0 -- -- 93
2020-11-26 21:00:00 8 19 Este 30 Este 1.2 -- -- 91
2020-11-26 20:00:00 9 18 Este 35 Este 0.8 -- -- 90
2020-11-26 19:00:00 9.3 18 Este 26 Nordeste 0 -- -- 85
2020-11-26 18:00:00 10.1 10 Nordeste 28 Este 0 -- -- 79
2020-11-26 17:00:00 10.6 21 Este 32 Este 0 -- -- 78
2020-11-26 16:00:00 10.9 21 Este 35 Este 0 -- -- 77
2020-11-26 15:00:00 10.9 21 Este 34 Este 0 -- -- 76
2020-11-26 14:00:00 10.5 22 Este 34 Este 0 -- -- 76
2020-11-26 13:00:00 10.1 16 Este 27 Este 0 -- -- 74
2020-11-26 12:00:00 10.9 15 Este 25 Este 0 -- -- 68
2020-11-26 11:00:00 10.5 11 Sudeste 24 Este 0 -- -- 75
2020-11-26 10:00:00 8.9 5 Nordeste 19 Este 0 -- -- 83
2020-11-26 09:00:00 8.5 12 Este 26 Este 0 -- -- 84
2020-11-26 08:00:00 7.5 5 Sudeste 17 Este 0 -- -- 89
2020-11-26 07:00:00 7.5 8 Este 23 Este 0 -- -- 88
2020-11-26 06:00:00 7.9 17 Este 26 Este 0 -- -- 86
2020-11-26 05:00:00 7.4 10 Este 16 Nordeste 0 -- -- 91
2020-11-26 04:00:00 7.6 10 Este 14 Este 0 -- -- 92
2020-11-26 03:00:00 7.5 2 Sur 12 Este 0 -- -- 92
2020-11-26 02:00:00 8.2 6 Este 10 Este 0 -- -- 90
2020-11-26 01:00:00 8.6 8 Sur 14 Sur 0 -- -- 92
2020-11-26 00:00:00 7.7 4 Este 9 Sudoeste 0.2 -- -- 90
2020-11-25 23:00:00 8.1 6 Sudeste 16 Este 0 -- -- 84
2020-11-25 22:00:00 8.5 8 Este 11 Este 0 -- -- 83
2020-11-25 21:00:00 9 4 Sudeste 16 Sudeste 0 -- -- 83
2020-11-25 20:00:00 9.1 11 Sudeste 19 Sudeste 0 -- -- 84
2020-11-25 19:00:00 8.1 3 Este 5 Sudeste 0 -- -- 91
2020-11-25 18:00:00 8.6 3 Sur 9 Nordeste 0 -- -- 88
2020-11-25 17:00:00 9.2 5 Este 10 Este 0 -- -- 86
2020-11-25 16:00:00 9.2 5 Este 9 Nordeste 0 -- -- 87
2020-11-25 15:00:00 9.3 4 Este 9 Este 0 -- -- 87
2020-11-25 14:00:00 9.4 5 Sudeste 9 Sur 0 -- -- 86
2020-11-25 13:00:00 7.9 6 Este 12 Este 0 -- -- 88
2020-11-25 12:00:00 7.4 5 Este 10 Este 0 -- -- 93
2020-11-25 11:00:00 7.2 6 Este 12 Este 0 -- -- 93
2020-11-25 10:00:00 7.4 3 Este 13 Este 0.2 -- -- 93
2020-11-25 09:00:00 7.5 6 Este 12 Sudeste 0.2 -- -- 91
2020-11-25 08:00:00 7.7 5 Este 21 Sudoeste 0.6 -- -- 89
2020-11-25 07:00:00 8.1 13 Sudoeste 23 Sudoeste 0 -- -- 85
2020-11-25 06:00:00 7.6 15 Sur 24 Sur 0 -- -- 86
2020-11-25 05:00:00 7 14 Sur 25 Sur 0 -- -- 86
2020-11-25 04:00:00 6.6 12 Sur 20 Sur 0 -- -- 88
2020-11-25 03:00:00 5.5 12 Sudoeste 17 Sudoeste 0 -- -- 97
2020-11-25 02:00:00 3 4 Sudoeste 8 Sur 0 -- -- 96
2020-11-25 01:00:00 2.4 6 Sur 8 Sur 0 -- -- 94
2020-11-25 00:00:00 2.5 0 Calma 7 Sudeste 0 -- -- 92
2020-11-24 23:00:00 3.1 4 Sur 7 Sur 0 -- -- 90
2020-11-24 22:00:00 4 0 Calma 9 Sur 0 -- -- 86
2020-11-24 21:00:00 5.1 6 Sur 10 Sur 0 -- -- 87
2020-11-24 20:00:00 6.1 4 Sur 9 Sudoeste 0 -- -- 81
2020-11-24 19:00:00 7.9 6 Sur 9 Sur 0 -- -- 75
2020-11-24 18:00:00 11.1 6 Sudoeste 16 Oeste 0 -- -- 65
2020-11-24 17:00:00 12.6 8 Oeste 18 Noroeste 0 -- -- 65
2020-11-24 16:00:00 12.8 10 Oeste 15 Oeste 0 -- -- 66
2020-11-24 15:00:00 12.4 8 Oeste 19 Oeste 0 -- -- 65
2020-11-24 14:00:00 12.5 13 Oeste 23 Oeste 0 -- -- 65
2020-11-24 13:00:00 11.5 12 Oeste 18 Oeste 0 -- -- 67
2020-11-24 12:00:00 10.6 9 Oeste 17 Noroeste 0 -- -- 72
2020-11-24 11:00:00 7.3 0 Calma 2 Noroeste 0 -- -- 84
2020-11-24 10:00:00 2.1 0 Calma 4 Sur 0 -- -- 96
2020-11-24 09:00:00 -0.5 4 Sur 5 Sur 0 -- -- 94
2020-11-24 08:00:00 -0.4 2 Sur 5 Sur 0 -- -- 94
2020-11-24 07:00:00 -0.4 4 Sur 5 Sur 0 -- -- 94
2020-11-24 06:00:00 -0.7 0 Calma 6 Sur 0 -- -- 93
2020-11-24 05:00:00 -0.9 3 Sur 6 Sur 0 -- -- 93
2020-11-24 04:00:00 -1.2 0 Calma 3 Sur 0 -- -- 90
2020-11-24 03:00:00 -0.8 4 Sur 5 Sur 0 -- -- 90
2020-11-24 02:00:00 -0.7 3 Sur 4 Sur 0 -- -- 88
2020-11-24 01:00:00 0 3 Sur 6 Sur 0 -- -- 89
2020-11-24 00:00:00 0.3 5 Sur 6 Sur 0 -- -- 88
2020-11-23 23:00:00 0.7 5 Sur 8 Sur 0 -- -- 86
2020-11-23 22:00:00 1.6 2 Sur 5 Sur 0 -- -- 83
2020-11-23 21:00:00 2.6 4 Sur 7 Sur 0 -- -- 80
2020-11-23 20:00:00 4.7 0 Calma 5 Sur 0 -- -- 70
2020-11-23 19:00:00 8.1 0 Calma 6 Este 0 -- -- 61
2020-11-23 18:00:00 11.9 5 Este 13 Este 0 -- -- 46
2020-11-23 17:00:00 14.1 10 Nordeste 15 Nordeste 0 -- -- 38
2020-11-23 16:00:00 15.1 8 Este 15 Este 0 -- -- 44
2020-11-23 15:00:00 15.2 7 Este 17 Nordeste 0 -- -- 48
2020-11-23 14:00:00 14.2 10 Este 14 Este 0 -- -- 51
2020-11-23 13:00:00 12.5 9 Este 16 Este 0 -- -- 58
2020-11-23 12:00:00 10.4 13 Este 18 Este 0 -- -- 64
2020-11-23 11:00:00 8.3 8 Este 12 Este 0 -- -- 73
2020-11-23 10:00:00 3.3 0 Calma 2 Sudeste 0 -- -- 97
2020-11-23 09:00:00 -1.6 3 Sur 6 Sur 0 -- -- 95
2020-11-23 08:00:00 -2.2 3 Sur 5 Sudeste 0 -- -- 92
2020-11-23 07:00:00 -1.6 0 Calma 3 Sur 0 -- -- 93
2020-11-23 06:00:00 -1.2 3 Sur 5 Sur 0 -- -- 93
2020-11-23 05:00:00 -1.2 0 Calma 6 Sur 0 -- -- 92
2020-11-23 04:00:00 -0.8 4 Sur 6 Sur 0 -- -- 93
2020-11-23 03:00:00 -0.4 0 Calma 5 Sur 0 -- -- 92
2020-11-23 02:00:00 0.1 4 Sur 5 Sur 0 -- -- 92
2020-11-23 01:00:00 0.4 2 Sur 6 Sur 0 -- -- 90
2020-11-23 00:00:00 0.9 4 Sur 5 Sur 0 -- -- 90
2020-11-22 23:00:00 1.7 0 Calma 6 Sur 0 -- -- 88
2020-11-22 22:00:00 2.6 5 Sur 6 Sur 0 -- -- 87
2020-11-22 21:00:00 3.7 4 Sur 8 Sur 0 -- -- 84
2020-11-22 20:00:00 5.3 6 Sur 8 Sur 0 -- -- 80
2020-11-22 19:00:00 8.4 5 Sur 6 Sur 0 -- -- 71
2020-11-22 18:00:00 14.8 0 Calma 6 Oeste 0 -- -- 52
2020-11-22 17:00:00 16.5 3 Oeste 8 Oeste 0 -- -- 44
2020-11-22 16:00:00 16.5 3 Oeste 12 Oeste 0 -- -- 44
2020-11-22 15:00:00 16 6 Oeste 14 Oeste 0 -- -- 46
2020-11-22 14:00:00 15.5 6 Noroeste 11 Oeste 0 -- -- 49
2020-11-22 13:00:00 14.5 2 Oeste 8 Este 0 -- -- 53
2020-11-22 12:00:00 13 3 Noroeste 5 Norte 0 -- -- 58
2020-11-22 11:00:00 10.6 0 Calma 2 Sur 0 -- -- 69
2020-11-22 10:00:00 4.5 2 Sur 5 Sur 0 -- -- 93
2020-11-22 09:00:00 -0.2 4 Sur 6 Sur 0 -- -- 95
2020-11-22 08:00:00 -0.5 5 Sur 6 Sur 0 -- -- 94
2020-11-22 07:00:00 -0.3 4 Sur 5 Sudeste 0 -- -- 93
2020-11-22 06:00:00 -0.1 0 Calma 5 Sur 0 -- -- 92
2020-11-22 05:00:00 0.3 3 Sur 6 Sur 0 -- -- 92
2020-11-22 04:00:00 0.4 5 Sur 6 Sur 0 -- -- 92
2020-11-22 03:00:00 0.5 3 Sur 7 Sur 0 -- -- 92
2020-11-22 02:00:00 0.4 4 Sur 6 Sur 0 -- -- 92
2020-11-22 01:00:00 0.5 2 Sur 4 Sur 0 -- -- 89
2020-11-22 00:00:00 1.2 0 Calma 3 Sur 0 -- -- 88
2020-11-21 23:00:00 1.7 3 Sur 6 Sur 0 -- -- 87
2020-11-21 22:00:00 2.5 6 Sur 9 Sur 0 -- -- 86
2020-11-21 21:00:00 3.4 4 Sur 6 Sur 0 -- -- 83
2020-11-21 20:00:00 4.9 4 Sur 5 Sur 0 -- -- 75
2020-11-21 19:00:00 8.4 4 Sudoeste 6 Nordeste 0 -- -- 64
2020-11-21 18:00:00 13.3 0 Calma 4 Nordeste 0 -- -- 51
2020-11-21 17:00:00 15.1 3 Sudeste 6 Este 0 -- -- 44
2020-11-21 16:00:00 14.6 3 Nordeste 10 Este 0 -- -- 45
2020-11-21 15:00:00 14.2 4 Este 13 Este 0 -- -- 47
2020-11-21 14:00:00 12.4 7 Este 14 Este 0 -- -- 56
2020-11-21 13:00:00 10.4 9 Este 14 Este 0 -- -- 61
2020-11-21 12:00:00 8.3 11 Este 15 Este 0 -- -- 69
2020-11-21 11:00:00 6.4 8 Este 12 Este 0 -- -- 77
2020-11-21 10:00:00 3.7 4 Este 8 Este 0 -- -- 86
2020-11-21 09:00:00 0.4 0 Calma 8 Nordeste 0 -- -- 94
2020-11-21 08:00:00 0.4 2 Norte 6 Sudeste 0 -- -- 93
2020-11-21 07:00:00 0.4 3 Sudeste 6 Sudeste 0 -- -- 93
2020-11-21 06:00:00 0.4 3 Este 10 Este 0 -- -- 92
2020-11-21 05:00:00 1 0 Calma 7 Este 0 -- -- 91
2020-11-21 04:00:00 1.6 0 Calma 10 Nordeste 0 -- -- 88
2020-11-21 03:00:00 2.3 8 Nordeste 11 Nordeste 0 -- -- 88
2020-11-21 02:00:00 3.6 6 Nordeste 12 Este 0 -- -- 85
2020-11-21 01:00:00 4.2 9 Este 19 Nordeste 0 -- -- 82
2020-11-21 00:00:00 5.7 13 Nordeste 24 Nordeste 0 -- -- 78
2020-11-20 23:00:00 4.3 3 Norte 12 Este 0 -- -- 85
2020-11-20 22:00:00 4.4 5 Sudeste 8 Este 0 -- -- 85
2020-11-20 21:00:00 5 0 Calma 6 Sudoeste 0 -- -- 80
2020-11-20 20:00:00 5.9 4 Nordeste 8 Este 0 -- -- 78
2020-11-20 19:00:00 8.1 2 Este 12 Nordeste 0 -- -- 70
2020-11-20 18:00:00 10.4 10 Nordeste 25 Nordeste 0 -- -- 61
2020-11-20 17:00:00 11.8 19 Nordeste 32 Nordeste 0 -- -- 56
2020-11-20 16:00:00 12.4 21 Nordeste 33 Nordeste 0 -- -- 52
2020-11-20 15:00:00 12.6 19 Nordeste 40 Nordeste 0 -- -- 52
2020-11-20 14:00:00 11.8 16 Este 26 Nordeste 0 -- -- 60
2020-11-20 13:00:00 10.3 13 Nordeste 28 Nordeste 0 -- -- 70
2020-11-20 12:00:00 9 18 Nordeste 26 Nordeste 0 -- -- 76
2020-11-20 11:00:00 7.2 15 Este 23 Este 0 -- -- 84
2020-11-20 10:00:00 6.1 14 Nordeste 21 Este 0 -- -- 89
2020-11-20 09:00:00 4.2 9 Este 17 Nordeste 0 -- -- 94
2020-11-20 08:00:00 4 12 Este 16 Este 0 -- -- 94
2020-11-20 07:00:00 4.4 11 Este 16 Este 0 -- -- 93
2020-11-20 06:00:00 5.3 11 Nordeste 17 Nordeste 0 -- -- 93
2020-11-20 05:00:00 6.3 13 Este 19 Nordeste 0 -- -- 92
2020-11-20 04:00:00 6.2 10 Este 16 Este 0 -- -- 93
2020-11-20 03:00:00 6.9 14 Nordeste 25 Este 0 -- -- 91
2020-11-20 02:00:00 8 17 Nordeste 35 Nordeste 0 -- -- 89
2020-11-20 01:00:00 8.2 14 Este 26 Este 0 -- -- 91
2020-11-20 00:00:00 8.8 14 Este 21 Este 0 -- -- 94
2020-11-19 23:00:00 5.5 5 Nordeste 10 Este 0 -- -- 92
2020-11-19 22:00:00 6.1 0 Calma 6 Sur 0 -- -- 88
2020-11-19 21:00:00 7.5 0 Calma 4 Sur 0 -- -- 86
2020-11-19 20:00:00 9.7 2 Sur 4 Sur 0 -- -- 81
2020-11-19 19:00:00 12.8 3 Este 7 Nordeste 0 -- -- 75
2020-11-19 18:00:00 15.4 6 Nordeste 11 Nordeste 0 -- -- 67
2020-11-19 17:00:00 17.7 6 Nordeste 13 Nordeste 0 -- -- 62
2020-11-19 16:00:00 18.4 9 Este 16 Nordeste 0 -- -- 60
2020-11-19 15:00:00 18.3 10 Nordeste 20 Este 0 -- -- 59
2020-11-19 14:00:00 17.6 12 Este 21 Este 0 -- -- 63
2020-11-19 13:00:00 16.4 12 Este 22 Este 0 -- -- 71
2020-11-19 12:00:00 14.5 11 Este 21 Este 0 -- -- 77
2020-11-19 11:00:00 11.8 12 Este 20 Este 0 -- -- 87
2020-11-19 10:00:00 9 4 Este 9 Este 0 -- -- 97
2020-11-19 09:00:00 3.8 2 Norte 6 Sur 0 -- -- 96
2020-11-19 08:00:00 3.4 0 Calma 5 Sur 0 -- -- 95
2020-11-19 07:00:00 3.7 4 Oeste 6 Sur 0 -- -- 94
2020-11-19 06:00:00 3.9 0 Calma 5 Sur 0 -- -- 93
2020-11-19 05:00:00 4.6 0 Calma 8 Noroeste 0 -- -- 94
2020-11-19 04:00:00 4.5 4 Sur 6 Sur 0 -- -- 93
2020-11-19 03:00:00 5 0 Calma 6 Sudoeste 0 -- -- 92
2020-11-19 02:00:00 5.7 0 Calma 4 Sur 0 -- -- 90
2020-11-19 01:00:00 6.9 3 Sur 5 Sur 0 -- -- 90
2020-11-19 00:00:00 7.7 3 Sur 6 Sur 0 -- -- 90
2020-11-18 23:00:00 9.2 3 Sur 5 Sur 0 -- -- 87
2020-11-18 22:00:00 10.3 0 Calma 6 Sur 0 -- -- 86
2020-11-18 21:00:00 10.3 4 Sur 5 Sur 0 -- -- 87
2020-11-18 20:00:00 11 4 Sur 6 Sur 0 -- -- 81
2020-11-18 19:00:00 13.6 5 Sur 7 Sur 0 -- -- 73
2020-11-18 18:00:00 18.3 0 Calma 7 Noroeste 0 -- -- 57
2020-11-18 17:00:00 20.2 5 Noroeste 14 Oeste 0 -- -- 49
2020-11-18 16:00:00 21.4 6 Noroeste 12 Noroeste 0 -- -- 44
2020-11-18 15:00:00 21.4 4 Este 13 Noroeste 0 -- -- 47
2020-11-18 14:00:00 20.5 6 Norte 11 Norte 0 -- -- 53
2020-11-18 13:00:00 19.9 2 Norte 9 Norte 0 -- -- 56
2020-11-18 12:00:00 17.8 3 Norte 6 Norte 0 -- -- 65
2020-11-18 11:00:00 14.1 0 Calma 5 Nordeste 0 -- -- 80
2020-11-18 10:00:00 7.6 0 Calma 4 Sudoeste 0 -- -- 94
2020-11-18 09:00:00 3.3 0 Calma 4 Sur 0 -- -- 95
2020-11-18 08:00:00 2.8 2 Sur 5 Sur 0 -- -- 93
2020-11-18 07:00:00 2.9 2 Sur 6 Sur 0 -- -- 93
2020-11-18 06:00:00 3.2 0 Calma 6 Sur 0 -- -- 91
2020-11-18 05:00:00 3.5 0 Calma 4 Nordeste 0 -- -- 90
2020-11-18 04:00:00 4.2 0 Calma 3 Nordeste 0 -- -- 90
2020-11-18 03:00:00 4.5 0 Calma 6 Este 0 -- -- 86
2020-11-18 02:00:00 5.4 0 Calma 7 Sur 0 -- -- 85
2020-11-18 01:00:00 5.9 7 Sur 9 Sur 0 -- -- 86
2020-11-18 00:00:00 6.3 0 Calma 3 Noroeste 0 -- -- 81
2020-11-17 23:00:00 7.2 0 Calma 4 Sur 0 -- -- 78
2020-11-17 22:00:00 8.3 0 Calma 7 Sudeste 0 -- -- 73
2020-11-17 21:00:00 9.9 7 Sudeste 10 Sudeste 0 -- -- 65
2020-11-17 20:00:00 11.3 7 Sudeste 10 Sudeste 0 -- -- 60
2020-11-17 19:00:00 14.1 4 Sur 9 Sur 0 -- -- 64
2020-11-17 18:00:00 17.8 7 Sur 9 Sur 0 -- -- 57
2020-11-17 17:00:00 20.2 4 Noroeste 10 Oeste 0 -- -- 52
2020-11-17 16:00:00 20.8 4 Noroeste 10 Oeste 0 -- -- 51
2020-11-17 15:00:00 20.4 3 Norte 8 Noroeste 0 -- -- 51
2020-11-17 14:00:00 19.6 2 Sudoeste 11 Sudeste 0 -- -- 54
2020-11-17 13:00:00 17.2 5 Nordeste 9 Nordeste 0 -- -- 66
2020-11-17 12:00:00 14.3 5 Nordeste 8 Este 0 -- -- 77
2020-11-17 11:00:00 11.3 3 Nordeste 8 Nordeste 0 -- -- 84
2020-11-17 10:00:00 6.9 0 Calma 7 Este 0 -- -- 97
2020-11-17 09:00:00 2.5 5 Sudeste 7 Sudeste 0 -- -- 99
2020-11-17 08:00:00 1.1 2 Sur 4 Sudoeste 0 -- -- 96
2020-11-17 07:00:00 1.5 3 Sudoeste 4 Sudoeste 0 -- -- 96
2020-11-17 06:00:00 1.5 2 Sur 5 Sur 0 -- -- 95
2020-11-17 05:00:00 1.6 3 Sur 4 Sudoeste 0 -- -- 93
2020-11-17 04:00:00 2.4 2 Sur 6 Sur 0 -- -- 95
2020-11-17 03:00:00 3 3 Sur 6 Sur 0 -- -- 95
2020-11-17 02:00:00 3.2 3 Sur 7 Sur 0 -- -- 94
2020-11-17 01:00:00 3.5 0 Calma 6 Sur 0 -- -- 92
2020-11-17 00:00:00 4.3 5 Sur 6 Sur 0 -- -- 93
2020-11-16 23:00:00 5.1 0 Calma 6 Sur 0 -- -- 91
2020-11-16 22:00:00 5.9 3 Sur 4 Sur 0 -- -- 91
2020-11-16 21:00:00 7.2 3 Sur 5 Sur 0 -- -- 88
2020-11-16 20:00:00 8.8 4 Sur 7 Sur 0 -- -- 87
2020-11-16 19:00:00 11 5 Sur 6 Sur 0 -- -- 81
2020-11-16 18:00:00 14.1 3 Norte 7 Noroeste 0 -- -- 70
2020-11-16 17:00:00 15.2 4 Noroeste 9 Norte 0 -- -- 66
2020-11-16 16:00:00 15.6 3 Nordeste 12 Noroeste 0 -- -- 66
2020-11-16 15:00:00 15.8 4 Noroeste 10 Noroeste 0 -- -- 65
2020-11-16 14:00:00 15 3 Noroeste 11 Noroeste 0 -- -- 69
2020-11-16 13:00:00 14 6 Noroeste 13 Oeste 0 -- -- 73
2020-11-16 12:00:00 13.3 9 Noroeste 14 Oeste 0 -- -- 79
2020-11-16 11:00:00 12.9 7 Noroeste 13 Noroeste 0 -- -- 88
2020-11-16 10:00:00 11.3 4 Sudoeste 9 Sur 0 -- -- 97
2020-11-16 09:00:00 9.2 6 Sudeste 8 Sudeste 0 -- -- 96
2020-11-16 08:00:00 10.2 6 Sudoeste 10 Sudoeste 0 -- -- 95
2020-11-16 07:00:00 10.9 5 Oeste 10 Oeste 0 -- -- 94
2020-11-16 06:00:00 11.9 5 Sudoeste 10 Oeste 0 -- -- 94
2020-11-16 05:00:00 12.7 7 Oeste 19 Sudoeste 0 -- -- 93
2020-11-16 04:00:00 13.1 10 Oeste 16 Oeste 0 -- -- 93
2020-11-16 03:00:00 13.1 8 Sudoeste 15 Oeste 0 -- -- 93
2020-11-16 02:00:00 13.4 8 Sudoeste 17 Sudoeste 0 -- -- 91
2020-11-16 01:00:00 13.6 11 Sudoeste 24 Oeste 0 -- -- 90
2020-11-16 00:00:00 13.8 10 Sudoeste 21 Sudoeste 0 -- -- 87
2020-11-15 23:00:00 14 9 Sudoeste 18 Sudoeste 0 -- -- 85
2020-11-15 22:00:00 13.8 12 Sudoeste 20 Sudoeste 0 -- -- 86
2020-11-15 21:00:00 14.1 14 Sudoeste 31 Sudoeste 0 -- -- 85
2020-11-15 20:00:00 14.6 18 Sudoeste 32 Sudoeste 0 -- -- 83
2020-11-15 19:00:00 14.9 16 Sudoeste 33 Sudoeste 0 -- -- 82
2020-11-15 18:00:00 15.2 16 Sudoeste 35 Sudoeste 0 -- -- 82
2020-11-15 17:00:00 15.9 18 Sudoeste 38 Sudoeste 0 -- -- 78
2020-11-15 16:00:00 16.5 30 Sudoeste 45 Sudoeste 0 -- -- 75
2020-11-15 15:00:00 17.4 27 Sudoeste 50 Sudoeste 0 -- -- 73
2020-11-15 14:00:00 17.1 24 Sudoeste 45 Sudoeste 0 -- -- 75
2020-11-15 13:00:00 16.9 24 Sudoeste 46 Sudoeste 0 -- -- 76
2020-11-15 12:00:00 15.9 19 Sudoeste 35 Sudoeste 0 -- -- 82
2020-11-15 11:00:00 15.3 17 Sudoeste 27 Sudoeste 0 -- -- 82
2020-11-15 10:00:00 14.4 11 Sudoeste 22 Sudoeste 0 -- -- 86
2020-11-15 09:00:00 13.6 12 Sur 21 Sur 0 -- -- 86
2020-11-15 08:00:00 13 12 Sudoeste 22 Sudoeste 0 -- -- 88
2020-11-15 07:00:00 13 11 Sur 18 Sudoeste 0 -- -- 88
2020-11-15 06:00:00 12.6 9 Sudoeste 22 Sudoeste 0 -- -- 90
2020-11-15 05:00:00 12.9 15 Sudoeste 27 Sur 0 -- -- 90
2020-11-15 04:00:00 13 21 Sur 30 Sur 0 -- -- 89
2020-11-15 03:00:00 12.4 24 Sur 36 Sur 0 -- -- 90
2020-11-15 02:00:00 12.2 16 Sur 25 Sur 0 -- -- 91
2020-11-15 01:00:00 11.9 12 Sur 22 Sur 0 -- -- 91
2020-11-15 00:00:00 12.1 16 Sur 22 Sur 0 -- -- 90
2020-11-14 23:00:00 12 13 Sur 19 Sur 0 -- -- 90
2020-11-14 22:00:00 10.6 10 Sur 14 Sur 0 -- -- 92
2020-11-14 21:00:00 12.1 8 Sur 18 Sudoeste 0 -- -- 86
2020-11-14 20:00:00 12.4 10 Sudoeste 18 Sur 0 -- -- 87
2020-11-14 19:00:00 12.1 13 Sur 21 Sudoeste 0 -- -- 88
2020-11-14 18:00:00 13.8 13 Sudoeste 30 Sudoeste 0 -- -- 81
2020-11-14 17:00:00 14.9 15 Sudoeste 30 Sudoeste 0 -- -- 79
2020-11-14 16:00:00 15.8 17 Sudoeste 25 Oeste 0 -- -- 74
2020-11-14 15:00:00 16 15 Sudoeste 29 Sur 0 -- -- 73
2020-11-14 14:00:00 15.9 19 Sudoeste 29 Sur 0 -- -- 73
2020-11-14 13:00:00 15.6 14 Sudoeste 27 Sudoeste 0 -- -- 72
2020-11-14 12:00:00 15 15 Sur 27 Sudoeste 0 -- -- 76
2020-11-14 11:00:00 12.6 8 Sur 13 Sur 0 -- -- 89
2020-11-14 10:00:00 10.4 6 Este 9 Este 0 -- -- 93
2020-11-14 09:00:00 9.4 4 Sudeste 9 Sudeste 0 -- -- 96
2020-11-14 08:00:00 7.4 5 Sur 7 Sur 0 -- -- 94
2020-11-14 07:00:00 7.3 3 Sur 4 Sudeste 0 -- -- 91
2020-11-14 06:00:00 8.3 4 Sudeste 6 Sudeste 0 -- -- 91
2020-11-14 05:00:00 8.9 3 Este 9 Este 0 -- -- 93
2020-11-14 04:00:00 7.4 2 Este 4 Este 0 -- -- 94
2020-11-14 03:00:00 7.5 0 Calma 6 Sur 0 -- -- 93
2020-11-14 02:00:00 7.7 0 Calma 3 Sur 0 -- -- 92
2020-11-14 01:00:00 8.1 0 Calma 5 Norte 0 -- -- 91
2020-11-14 00:00:00 8.2 2 Norte 4 Norte 0 -- -- 92
2020-11-13 23:00:00 7.8 2 Sudeste 4 Sudoeste 0 -- -- 91
2020-11-13 22:00:00 8.1 0 Calma 3 Este 0 -- -- 89
2020-11-13 21:00:00 8.4 0 Calma 2 Nordeste 0 -- -- 89
2020-11-13 20:00:00 8.5 0 Calma 8 Sur 0 -- -- 86
2020-11-13 19:00:00 9.6 5 Sur 6 Sur 0 -- -- 83
2020-11-13 18:00:00 12.6 0 Calma 3 Nordeste 0 -- -- 73
2020-11-13 17:00:00 14 0 Calma 4 Noroeste 0 -- -- 64
2020-11-13 16:00:00 14.6 0 Calma 5 Sudeste 0 -- -- 61
2020-11-13 15:00:00 14.5 4 Este 10 Sudeste 0 -- -- 62
2020-11-13 14:00:00 14.1 6 Este 19 Este 0 -- -- 67
2020-11-13 13:00:00 12.7 9 Este 12 Este 0 -- -- 83
2020-11-13 12:00:00 11.6 3 Nordeste 6 Norte 0 -- -- 87
2020-11-13 11:00:00 10.5 0 Calma 3 Este 0 -- -- 92
2020-11-13 10:00:00 7.1 3 Sur 4 Sudeste 0 -- -- 98
2020-11-13 09:00:00 4.9 0 Calma 2 Sudeste 0 -- -- 96
2020-11-13 08:00:00 5.3 0 Calma 3 Sur 0 -- -- 96
2020-11-13 07:00:00 5.2 2 Sudoeste 5 Sur 0 -- -- 96
2020-11-13 06:00:00 4.6 0 Calma 3 Sur 0 -- -- 96
2020-11-13 05:00:00 4.2 3 Sur 5 Sur 0 -- -- 95
2020-11-13 04:00:00 4.4 0 Calma 4 Sur 0 -- -- 93
2020-11-13 03:00:00 5.7 4 Sudoeste 6 Sur 0 -- -- 93
2020-11-13 02:00:00 6.9 3 Sur 4 Sur 0 -- -- 93
2020-11-13 01:00:00 7.6 0 Calma 2 Noroeste 0 -- -- 93
2020-11-13 00:00:00 8 0 Calma 4 Sur 0 -- -- 92
2020-11-12 23:00:00 8.3 3 Sur 5 Sur 0 -- -- 92
2020-11-12 22:00:00 8.9 3 Sudoeste 4 Sudoeste 0 -- -- 90
2020-11-12 21:00:00 9.3 2 Sudeste 5 Sur 0 -- -- 88
2020-11-12 20:00:00 10.4 0 Calma 4 Noroeste 0 -- -- 84
2020-11-12 19:00:00 11.5 2 Norte 8 Este 0 -- -- 80
2020-11-12 18:00:00 12.9 5 Este 8 Nordeste 0 -- -- 74
2020-11-12 17:00:00 15.1 5 Este 10 Este 0 -- -- 57
2020-11-12 16:00:00 15.2 5 Este 11 Este 0 -- -- 60
2020-11-12 15:00:00 15 5 Este 13 Este 0 -- -- 62
2020-11-12 14:00:00 14.5 7 Este 13 Este 0 -- -- 67
2020-11-12 13:00:00 13.4 10 Este 18 Este 0 -- -- 73
2020-11-12 12:00:00 12 14 Este 18 Este 0 -- -- 80
2020-11-12 11:00:00 9.3 2 Nordeste 5 Este 0 -- -- 97
2020-11-12 10:00:00 6.6 0 Calma 7 Sur 0 -- -- 98
2020-11-12 09:00:00 4.7 2 Sur 4 Sudeste 0 -- -- 96
2020-11-12 08:00:00 5.1 0 Calma 5 Sur 0 -- -- 95
2020-11-12 07:00:00 5.6 4 Sur 5 Sur 0 -- -- 96
2020-11-12 06:00:00 5.8 2 Sur 7 Sur 0 -- -- 96
2020-11-12 05:00:00 5.9 0 Calma 7 Sur 0 -- -- 95
2020-11-12 04:00:00 6.1 3 Sur 5 Sur 0 -- -- 95
2020-11-12 03:00:00 6.1 2 Sur 7 Sur 0 -- -- 95
2020-11-12 02:00:00 6.3 0 Calma 3 Sur 0 -- -- 94
2020-11-12 01:00:00 6.5 3 Sur 6 Sur 0 -- -- 94
2020-11-12 00:00:00 6.6 0 Calma 7 Sur 0 -- -- 92
2020-11-11 23:00:00 7.6 2 Sur 4 Sur 0 -- -- 91
2020-11-11 22:00:00 8.3 2 Oeste 10 Sur 0 -- -- 90
2020-11-11 21:00:00 8.7 3 Sur 7 Sur 0 -- -- 89
2020-11-11 20:00:00 9.3 4 Sudoeste 10 Sudeste 0 -- -- 89
2020-11-11 19:00:00 10.7 4 Sur 6 Sur 0 -- -- 86
2020-11-11 18:00:00 12.7 4 Este 7 Este 0 -- -- 80
2020-11-11 17:00:00 13.7 2 Nordeste 7 Noroeste 0 -- -- 75
2020-11-11 16:00:00 13.9 3 Oeste 10 Oeste 0 -- -- 75
2020-11-11 15:00:00 13.3 7 Oeste 16 Noroeste 0 -- -- 76
2020-11-11 14:00:00 12.3 7 Norte 18 Norte 0 -- -- 81
2020-11-11 13:00:00 11.8 11 Noroeste 16 Noroeste 0 -- -- 85
2020-11-11 12:00:00 9.2 8 Este 14 Este 0 -- -- 98
2020-11-11 11:00:00 7.2 8 Este 14 Este 0 -- -- 99
2020-11-11 10:00:00 6.1 4 Nordeste 8 Este 0 -- -- 99
2020-11-11 09:00:00 5 5 Este 14 Este 0.2 -- -- 99
2020-11-11 08:00:00 5.3 6 Este 14 Este 0 -- -- 99
2020-11-11 07:00:00 6 8 Este 16 Este 0 -- -- 99
2020-11-11 06:00:00 6.2 8 Este 12 Este 0 -- -- 99
2020-11-11 05:00:00 6.3 9 Este 12 Este 0 -- -- 98
2020-11-11 04:00:00 6.8 4 Sudeste 11 Este 0 -- -- 98
2020-11-11 03:00:00 7 10 Este 21 Este 0 -- -- 98
2020-11-11 02:00:00 7.4 9 Este 17 Este 0 -- -- 98
2020-11-11 01:00:00 7.5 7 Este 17 Este 0 -- -- 98
2020-11-11 00:00:00 7.7 8 Este 16 Este 0 -- -- 98
2020-11-10 23:00:00 7.8 8 Este 14 Este 0 -- -- 97
2020-11-10 22:00:00 7.8 11 Este 17 Este 0 -- -- 97
2020-11-10 21:00:00 8.2 10 Este 17 Nordeste 0 -- -- 96
2020-11-10 20:00:00 8.5 9 Nordeste 17 Este 0 -- -- 94
2020-11-10 19:00:00 9.3 5 Nordeste 11 Norte 0 -- -- 89
2020-11-10 18:00:00 11.1 7 Nordeste 17 Nordeste 0 -- -- 85
2020-11-10 17:00:00 12.7 9 Nordeste 16 Este 0 -- -- 81
2020-11-10 16:00:00 12.9 6 Nordeste 13 Este 0 -- -- 77
2020-11-10 15:00:00 11.7 8 Nordeste 15 Este 0 -- -- 88
2020-11-10 14:00:00 9.7 7 Nordeste 17 Este 0 -- -- 96
2020-11-10 13:00:00 9.1 6 Nordeste 12 Nordeste 0 -- -- 98
2020-11-10 12:00:00 8.5 5 Este 13 Este 0 -- -- 98
2020-11-10 11:00:00 7.5 3 Nordeste 10 Nordeste 0 -- -- 99
2020-11-10 10:00:00 7.3 5 Nordeste 12 Este 0 -- -- 98
2020-11-10 09:00:00 7.3 4 Sudeste 8 Sudeste 0 -- -- 98
2020-11-10 08:00:00 7.3 0 Calma 6 Oeste 0 -- -- 98
2020-11-10 07:00:00 7.5 3 Noroeste 5 Noroeste 0 -- -- 98
2020-11-10 06:00:00 7.2 0 Calma 8 Sur 0 -- -- 98
2020-11-10 05:00:00 6.5 5 Sur 9 Sudoeste 0 -- -- 98
2020-11-10 04:00:00 5.8 5 Sudoeste 8 Sudoeste 0 -- -- 98
2020-11-10 03:00:00 4.3 4 Sur 6 Sur 0 -- -- 96
2020-11-10 02:00:00 4.2 4 Sur 7 Sur 0 -- -- 95
2020-11-10 01:00:00 5 3 Sur 6 Sur 0 -- -- 94
2020-11-10 00:00:00 5.9 3 Sudeste 5 Sur 0 -- -- 93
2020-11-09 23:00:00 7 0 Calma 6 Sur 0 -- -- 92
2020-11-09 22:00:00 8.4 3 Sudoeste 6 Sur 0 -- -- 93
2020-11-09 21:00:00 8.5 2 Sudoeste 6 Sudoeste 0 -- -- 92
2020-11-09 20:00:00 9.4 3 Sur 6 Sur 0 -- -- 88
2020-11-09 19:00:00 11.1 2 Sur 6 Oeste 0 -- -- 84
2020-11-09 18:00:00 12.7 4 Noroeste 10 Oeste 0 -- -- 79
2020-11-09 17:00:00 13.1 5 Oeste 21 Oeste 0 -- -- 77
2020-11-09 16:00:00 13.9 12 Oeste 22 Oeste 0 -- -- 71
2020-11-09 15:00:00 14 14 Oeste 20 Oeste 0 -- -- 72
2020-11-09 14:00:00 13.5 14 Oeste 20 Oeste 0 -- -- 74
2020-11-09 13:00:00 12.6 12 Oeste 20 Oeste 0 -- -- 78
2020-11-09 12:00:00 12.5 13 Oeste 23 Sudoeste 0 -- -- 79
2020-11-09 11:00:00 11.8 9 Sudoeste 14 Oeste 0 -- -- 85
2020-11-09 10:00:00 9.1 2 Sur 5 Noroeste 0 -- -- 97
2020-11-09 09:00:00 7.1 3 Noroeste 13 Sur 0 -- -- 97
2020-11-09 08:00:00 6.4 3 Sudeste 8 Sur 0 -- -- 96
2020-11-09 07:00:00 6.8 5 Sur 6 Sur 0 -- -- 96
2020-11-09 06:00:00 6.5 3 Sur 6 Sudeste 0 -- -- 96
2020-11-09 05:00:00 7 4 Sudeste 6 Sudeste 0.2 -- -- 95
2020-11-09 04:00:00 8.4 5 Sur 7 Sur 0 -- -- 95
2020-11-09 03:00:00 9.2 0 Calma 6 Sudeste 0 -- -- 96
2020-11-09 02:00:00 9.9 3 Sudeste 6 Noroeste 0 -- -- 96
2020-11-09 01:00:00 10 2 Este 6 Norte 1 -- -- 96
2020-11-09 00:00:00 10 2 Norte 23 Este 0.2 -- -- 96
2020-11-08 23:00:00 9.8 15 Este 30 Este 0.8 -- -- 95
2020-11-08 22:00:00 9.9 18 Este 23 Este 1 -- -- 95
2020-11-08 21:00:00 10.3 12 Este 21 Este 0 -- -- 93
2020-11-08 20:00:00 10.4 3 Nordeste 10 Norte 0 -- -- 93
2020-11-08 19:00:00 10.6 3 Nordeste 14 Oeste 0.2 -- -- 90
2020-11-08 18:00:00 11.7 9 Noroeste 25 Sur 0.6 -- -- 87
2020-11-08 17:00:00 12.8 12 Sudoeste 36 Sur 0 -- -- 83
2020-11-08 16:00:00 13.6 22 Sudoeste 37 Sur 0 -- -- 79
2020-11-08 15:00:00 13.4 26 Sur 37 Sur 0 -- -- 80
2020-11-08 14:00:00 13.1 22 Sur 49 Sudoeste 0 -- -- 82
2020-11-08 13:00:00 12.9 23 Sur 44 Sur 0 -- -- 81
2020-11-08 12:00:00 12.6 26 Sur 51 Sur 0 -- -- 81
2020-11-08 11:00:00 12.8 27 Sur 41 Sudoeste 0 -- -- 78
2020-11-08 10:00:00 11.2 14 Sur 24 Sur 0 -- -- 80
2020-11-08 09:00:00 10.1 10 Sur 25 Sur 0 -- -- 82
2020-11-08 08:00:00 10.6 17 Sur 34 Sur 0 -- -- 81
2020-11-08 07:00:00 10.2 12 Sur 26 Sur 0 -- -- 85
2020-11-08 06:00:00 10.5 14 Sur 33 Sur 0 -- -- 87
2020-11-08 05:00:00 10.9 22 Sur 40 Sur 0 -- -- 85
2020-11-08 04:00:00 11.3 24 Sur 40 Sur 0 -- -- 84
2020-11-08 03:00:00 10.9 14 Sur 28 Sur 0 -- -- 84
2020-11-08 02:00:00 10.4 10 Sur 22 Sur 0 -- -- 84
2020-11-08 01:00:00 9.9 10 Sur 16 Sudeste 0 -- -- 86
2020-11-08 00:00:00 10.4 10 Sur 16 Sur 0 -- -- 85
2020-11-07 23:00:00 10.4 12 Sur 26 Sur 0 -- -- 85
2020-11-07 22:00:00 10.7 16 Sudoeste 33 Sur 0 -- -- 84
2020-11-07 21:00:00 10.7 20 Sudoeste 34 Sudoeste 0 -- -- 85
2020-11-07 20:00:00 10.4 12 Sudoeste 23 Sudoeste 0 -- -- 87
2020-11-07 19:00:00 10.4 10 Sur 23 Sur 0 -- -- 85
2020-11-07 18:00:00 11.9 14 Sur 29 Sudoeste 0 -- -- 79
2020-11-07 17:00:00 12.8 20 Sur 31 Sudoeste 0 -- -- 78
2020-11-07 16:00:00 13.2 16 Sudoeste 32 Sudoeste 0 -- -- 72
2020-11-07 15:00:00 12.9 15 Sudoeste 28 Sur 0 -- -- 83
2020-11-07 14:00:00 12.5 19 Sur 30 Sudoeste 0.2 -- -- 86
2020-11-07 13:00:00 11.9 19 Sudoeste 31 Sur 1.2 -- -- 88
2020-11-07 12:00:00 12.3 11 Sudoeste 22 Sudoeste 0 -- -- 83
2020-11-07 11:00:00 11.3 9 Sudoeste 20 Oeste 0 -- -- 92
2020-11-07 10:00:00 10.4 8 Sudoeste 12 Sudoeste 0.2 -- -- 96
2020-11-07 09:00:00 9 3 Sudoeste 8 Sur 0.6 -- -- 96
2020-11-07 08:00:00 8.3 0 Calma 4 Este 0 -- -- 95
2020-11-07 07:00:00 8.7 0 Calma 5 Este 0 -- -- 93
2020-11-07 06:00:00 9.5 5 Oeste 14 Sudoeste 0 -- -- 91
2020-11-07 05:00:00 10 8 Sur 20 Sur 0.4 -- -- 91
2020-11-07 04:00:00 10.5 9 Sudoeste 24 Sur 2.4 -- -- 92
2020-11-07 03:00:00 10.1 8 Sudeste 14 Sudeste 0.2 -- -- 93
2020-11-07 02:00:00 9.9 4 Este 12 Sudeste 0.2 -- -- 92
2020-11-07 01:00:00 9.6 4 Sudeste 8 Sudeste 0 -- -- 92
2020-11-07 00:00:00 9.6 4 Sur 18 Sur 0 -- -- 89
2020-11-06 23:00:00 10.7 12 Sur 36 Sur 0 -- -- 87
2020-11-06 22:00:00 11.1 24 Sur 42 Sur 0 -- -- 85
2020-11-06 21:00:00 12 14 Sudoeste 49 Sudoeste 0.4 -- -- 78
2020-11-06 20:00:00 12.5 7 Sudeste 35 Sudeste 0 -- -- 80
2020-11-06 19:00:00 13.2 22 Sudeste 59 Sur 0.6 -- -- 78
2020-11-06 18:00:00 16.5 21 Sudeste 32 Sudeste 0 -- -- 59
2020-11-06 17:00:00 17.8 13 Sudeste 30 Sudeste 0 -- -- 54
2020-11-06 16:00:00 19 18 Sudeste 35 Sudeste 0 -- -- 52
2020-11-06 15:00:00 19.3 16 Sudeste 51 Sudeste 0 -- -- 53
2020-11-06 14:00:00 17.9 30 Sudeste 49 Sudeste 0 -- -- 54
2020-11-06 13:00:00 15.9 26 Este 40 Este 0 -- -- 71
2020-11-06 12:00:00 15.3 23 Este 48 Este 0 -- -- 73
2020-11-06 11:00:00 13.3 30 Este 48 Este 0 -- -- 82
2020-11-06 10:00:00 11.9 23 Este 36 Este 0 -- -- 82
2020-11-06 09:00:00 10.7 3 Sudeste 12 Este 0.2 -- -- 84
2020-11-06 08:00:00 11.8 10 Este 22 Sudeste 0 -- -- 80
2020-11-06 07:00:00 11 15 Sudeste 24 Sudeste 0 -- -- 82
2020-11-06 06:00:00 9.4 15 Este 27 Este 0 -- -- 93
2020-11-06 05:00:00 8.6 3 Este 11 Nordeste 0 -- -- 93
2020-11-06 04:00:00 9.5 4 Nordeste 17 Sudoeste 1 -- -- 93
2020-11-06 03:00:00 10.2 9 Sudeste 26 Este 0 -- -- 88
2020-11-06 02:00:00 9.4 16 Este 25 Este 0 -- -- 91
2020-11-06 01:00:00 8.9 16 Este 29 Este 0 -- -- 92
2020-11-06 00:00:00 8.6 21 Este 35 Este 0 -- -- 92
2020-11-05 23:00:00 9.1 24 Este 33 Este 0 -- -- 91
2020-11-05 22:00:00 9.4 13 Este 26 Este 0 -- -- 92
2020-11-05 21:00:00 9.6 10 Nordeste 20 Este 0 -- -- 90
2020-11-05 20:00:00 10 12 Este 17 Este 0.4 -- -- 89
2020-11-05 19:00:00 11.4 15 Sur 34 Este 0.6 -- -- 85
2020-11-05 18:00:00 12.8 18 Este 33 Este 0 -- -- 77
2020-11-05 17:00:00 13.1 26 Este 38 Este 0 -- -- 78
2020-11-05 16:00:00 13.3 23 Este 41 Este 0 -- -- 76
2020-11-05 15:00:00 13.4 10 Nordeste 35 Este 0 -- -- 75
2020-11-05 14:00:00 13.3 26 Este 35 Este 0 -- -- 76
2020-11-05 13:00:00 13.4 23 Este 47 Este 0 -- -- 76
2020-11-05 12:00:00 11.4 23 Este 49 Este 0 -- -- 84
2020-11-05 11:00:00 10.5 36 Este 51 Este 0 -- -- 84
2020-11-05 10:00:00 9.6 27 Este 41 Este 0 -- -- 90
2020-11-05 09:00:00 9.3 28 Este 49 Este 0.2 -- -- 89
2020-11-05 08:00:00 8.2 28 Nordeste 48 Nordeste 0 -- -- 87
2020-11-05 07:00:00 8.2 27 Este 40 Este 0 -- -- 86
2020-11-05 06:00:00 7.5 25 Este 44 Nordeste 0 -- -- 89
2020-11-05 05:00:00 7.6 30 Este 41 Este 0.2 -- -- 89
2020-11-05 04:00:00 7.8 24 Nordeste 44 Nordeste 0 -- -- 89
2020-11-05 03:00:00 7.2 23 Este 38 Este 0 -- -- 90
2020-11-05 02:00:00 7 22 Este 39 Este 0 -- -- 89
2020-11-05 01:00:00 6.8 26 Nordeste 44 Nordeste 0 -- -- 88
2020-11-05 00:00:00 6.9 26 Este 44 Este 0 -- -- 89